createdAt,value
2023-03-03T00:02:16.405Z,4.00
2023-03-03T00:05:19.294Z,4.00
2023-03-03T00:08:23.132Z,3.80
2023-03-03T00:11:25.002Z,3.70
2023-03-03T00:14:32.607Z,3.80
2023-03-03T00:17:34.453Z,3.80
2023-03-03T00:20:39.184Z,3.70
2023-03-03T00:23:44.392Z,3.70
2023-03-03T00:26:51.923Z,3.60
2023-03-03T00:30:01.067Z,3.60
2023-03-03T00:33:13.504Z,3.60
2023-03-03T00:36:15.483Z,3.60
2023-03-03T00:39:40.573Z,3.40
2023-03-03T00:42:47.297Z,3.60
2023-03-03T00:45:56.114Z,3.50
2023-03-03T00:48:58.632Z,3.50
2023-03-03T00:52:00.551Z,3.40
2023-03-03T00:55:04.492Z,3.30
2023-03-03T00:58:06.957Z,3.30
2023-03-03T01:01:08.812Z,3.30
2023-03-03T01:04:11.156Z,3.20
2023-03-03T01:07:13.199Z,3.30
2023-03-03T01:10:15.196Z,3.20
2023-03-03T01:13:19.142Z,3.30
2023-03-03T01:16:21.811Z,3.30
2023-03-03T01:19:23.796Z,3.30
2023-03-03T01:22:25.580Z,3.20
2023-03-03T01:25:27.688Z,3.00
2023-03-03T01:28:29.799Z,3.10
2023-03-03T01:31:31.910Z,3.10
2023-03-03T01:34:34.206Z,3.10
2023-03-03T01:37:36.529Z,3.10
2023-03-03T01:40:38.779Z,3.10
2023-03-03T01:43:45.795Z,3.10
2023-03-03T01:47:15.720Z,3.00
2023-03-03T01:50:32.976Z,3.10
2023-03-03T01:53:48.142Z,3.10
2023-03-03T01:56:51.904Z,3.20
2023-03-03T01:59:55.452Z,3.20
2023-03-03T02:02:57.462Z,3.30
2023-03-03T02:06:05.644Z,3.30
2023-03-03T02:09:41.429Z,3.40
2023-03-03T02:12:52.424Z,3.40
2023-03-03T02:15:54.242Z,3.40
2023-03-03T02:18:56.094Z,3.40
2023-03-03T02:22:00.037Z,3.50
2023-03-03T02:25:05.600Z,3.40
2023-03-03T02:28:07.798Z,3.30
2023-03-03T02:31:15.594Z,3.30
2023-03-03T02:34:17.878Z,3.30
2023-03-03T02:37:20.375Z,3.30
2023-03-03T02:40:28.196Z,3.30
2023-03-03T02:43:41.517Z,3.20
2023-03-03T02:46:48.532Z,3.10
2023-03-03T02:49:50.332Z,3.10
2023-03-03T02:52:52.266Z,3.10
2023-03-03T02:55:54.246Z,3.00
2023-03-03T02:58:56.375Z,3.00
2023-03-03T03:01:58.219Z,2.90
2023-03-03T03:05:00.579Z,3.00
2023-03-03T03:08:02.401Z,2.90
2023-03-03T03:11:06.096Z,2.90
2023-03-03T03:14:09.579Z,2.80
2023-03-03T03:17:12.715Z,2.90
2023-03-03T03:20:14.733Z,2.90
2023-03-03T03:23:17.401Z,2.90
2023-03-03T03:26:21.154Z,2.90
2023-03-03T03:29:23.000Z,2.90
2023-03-03T03:32:24.971Z,2.90
2023-03-03T03:35:26.876Z,2.90
2023-03-03T03:38:30.021Z,2.80
2023-03-03T03:41:31.893Z,2.70
2023-03-03T03:44:33.672Z,2.70
2023-03-03T03:47:35.664Z,2.80
2023-03-03T03:50:38.683Z,2.70
2023-03-03T03:53:40.713Z,2.80
2023-03-03T03:56:42.449Z,2.70
2023-03-03T03:59:44.397Z,2.70
2023-03-03T04:02:46.540Z,2.60
2023-03-03T04:05:49.038Z,2.60
2023-03-03T04:08:51.080Z,2.60
2023-03-03T04:11:52.886Z,2.60
2023-03-03T04:14:54.629Z,2.60
2023-03-03T04:17:57.050Z,2.70
2023-03-03T04:20:58.973Z,2.60
2023-03-03T04:24:00.800Z,2.50
2023-03-03T04:27:02.726Z,2.60
2023-03-03T04:30:06.089Z,2.60
2023-03-03T04:33:07.949Z,2.60
2023-03-03T04:36:09.782Z,2.60
2023-03-03T04:39:11.929Z,2.60
2023-03-03T04:42:14.050Z,2.60
2023-03-03T04:45:16.178Z,2.60
2023-03-03T04:48:18.252Z,2.50
2023-03-03T04:51:20.283Z,2.50
2023-03-03T04:54:22.092Z,2.40
2023-03-03T04:57:23.894Z,2.50
2023-03-03T05:00:26.273Z,2.50
2023-03-03T05:03:28.357Z,2.50
2023-03-03T05:06:30.251Z,2.60
2023-03-03T05:09:32.449Z,2.50
2023-03-03T05:12:34.500Z,2.50
2023-03-03T05:15:36.339Z,2.50
2023-03-03T05:18:38.452Z,2.50
2023-03-03T05:21:42.511Z,2.50
2023-03-03T05:24:44.666Z,2.50
2023-03-03T05:27:46.730Z,2.40
2023-03-03T05:30:49.015Z,2.50
2023-03-03T05:33:50.824Z,2.50
2023-03-03T05:36:52.606Z,2.40
2023-03-03T05:39:54.596Z,2.50
2023-03-03T05:42:56.716Z,2.50
2023-03-03T05:45:59.141Z,2.50
2023-03-03T05:49:01.120Z,2.60
2023-03-03T05:52:03.193Z,2.50
2023-03-03T05:55:05.724Z,2.60
2023-03-03T05:58:07.593Z,2.60
2023-03-03T06:01:09.661Z,2.50
2023-03-03T06:04:13.313Z,2.50
2023-03-03T06:07:15.370Z,2.50
2023-03-03T06:10:17.319Z,2.40
2023-03-03T06:13:19.243Z,2.40
2023-03-03T06:16:21.430Z,2.50
2023-03-03T06:19:23.575Z,2.50
2023-03-03T06:22:25.602Z,2.50
2023-03-03T06:25:28.015Z,2.50
2023-03-03T06:28:29.948Z,2.50
2023-03-03T06:31:31.932Z,2.50
2023-03-03T06:34:34.000Z,2.50
2023-03-03T06:37:35.887Z,2.50
2023-03-03T06:40:37.792Z,2.50
2023-03-03T06:43:39.676Z,2.50
2023-03-03T06:46:41.581Z,2.50
2023-03-03T06:49:43.440Z,2.50
2023-03-03T06:52:45.353Z,2.60
2023-03-03T06:55:47.260Z,2.50
2023-03-03T06:58:49.571Z,2.60
2023-03-03T07:01:52.210Z,2.60
2023-03-03T07:04:57.146Z,2.60
2023-03-03T07:07:59.414Z,2.60
2023-03-03T07:11:08.212Z,2.70
2023-03-03T07:14:16.974Z,2.50
2023-03-03T07:17:20.940Z,2.60
2023-03-03T07:20:28.175Z,2.60
2023-03-03T07:23:42.524Z,2.60
2023-03-03T07:26:44.796Z,2.60
2023-03-03T07:29:52.384Z,2.60
2023-03-03T07:32:58.952Z,2.70
2023-03-03T07:36:03.728Z,2.70
2023-03-03T07:39:22.025Z,2.70
2023-03-03T07:42:40.881Z,2.60
2023-03-03T07:45:44.037Z,2.50
2023-03-03T07:48:46.338Z,2.60
2023-03-03T07:51:52.504Z,2.60
2023-03-03T07:54:56.787Z,2.60
2023-03-03T07:58:21.356Z,2.60
2023-03-03T08:01:39.945Z,2.60
2023-03-03T08:04:50.582Z,2.60
2023-03-03T08:07:53.494Z,2.60
2023-03-03T08:10:57.067Z,2.50
2023-03-03T08:13:59.288Z,2.50
2023-03-03T08:17:02.437Z,2.50
2023-03-03T08:20:28.288Z,2.50
2023-03-03T08:23:30.461Z,2.40
2023-03-03T08:26:32.419Z,2.40
2023-03-03T08:29:34.411Z,2.30
2023-03-03T08:32:36.568Z,2.30
2023-03-03T08:35:38.664Z,2.30
2023-03-03T08:38:41.032Z,2.30
2023-03-03T08:41:44.472Z,2.40
2023-03-03T08:44:46.325Z,2.30
2023-03-03T08:47:48.177Z,2.30
2023-03-03T08:50:50.264Z,2.50
2023-03-03T08:53:52.393Z,2.40
2023-03-03T08:56:54.395Z,2.30
2023-03-03T08:59:56.228Z,2.40
2023-03-03T09:02:58.091Z,2.30
2023-03-03T09:06:00.998Z,2.30
2023-03-03T09:09:03.150Z,2.30
2023-03-03T09:12:17.184Z,2.30
2023-03-03T09:15:24.042Z,2.40
2023-03-03T09:18:36.778Z,2.40
2023-03-03T09:21:38.588Z,2.40
2023-03-03T09:24:42.793Z,2.40
2023-03-03T09:27:44.550Z,2.50
2023-03-03T09:30:49.998Z,2.40
2023-03-03T09:33:55.093Z,2.50
2023-03-03T09:37:00.067Z,2.50
2023-03-03T09:40:26.783Z,2.60
2023-03-03T09:43:46.840Z,2.60
2023-03-03T09:47:13.187Z,2.60
2023-03-03T09:50:44.434Z,2.50
2023-03-03T09:54:05.134Z,2.60
2023-03-03T09:57:15.943Z,2.60
2023-03-03T10:00:40.967Z,2.60
2023-03-03T10:04:18.487Z,2.70
2023-03-03T10:07:26.844Z,2.70
2023-03-03T10:10:53.439Z,2.70
2023-03-03T10:14:01.664Z,2.80
2023-03-03T10:17:24.973Z,2.80
2023-03-03T10:20:37.467Z,2.80
2023-03-03T10:23:59.083Z,2.90
2023-03-03T10:27:37.156Z,2.90
2023-03-03T10:30:58.449Z,3.00
2023-03-03T10:34:41.417Z,3.00
2023-03-03T10:38:18.395Z,3.10
2023-03-03T10:41:32.002Z,3.00
2023-03-03T10:44:57.930Z,3.10
2023-03-03T10:48:17.777Z,3.10
2023-03-03T10:51:51.848Z,3.20
2023-03-03T10:55:22.107Z,3.20
2023-03-03T10:58:38.486Z,3.20
2023-03-03T11:02:03.109Z,3.20
2023-03-03T11:05:26.935Z,3.20
2023-03-03T11:09:11.448Z,3.30
2023-03-03T11:12:31.512Z,3.30
2023-03-03T11:15:46.983Z,3.30
2023-03-03T11:19:03.803Z,3.40
2023-03-03T11:22:34.151Z,3.40
2023-03-03T11:25:50.291Z,3.40
2023-03-03T11:29:00.930Z,3.40
2023-03-03T11:32:19.170Z,3.50
2023-03-03T11:35:24.066Z,3.50
2023-03-03T11:38:25.857Z,3.50
2023-03-03T11:41:36.289Z,3.60
2023-03-03T11:44:47.062Z,3.60
2023-03-03T11:47:58.121Z,3.60
2023-03-03T11:51:28.241Z,3.60
2023-03-03T11:54:42.036Z,3.60
2023-03-03T11:57:57.274Z,3.50
2023-03-03T12:01:09.691Z,3.50
2023-03-03T12:04:16.170Z,3.50
2023-03-03T12:07:40.999Z,3.50
2023-03-03T12:11:05.684Z,3.50
2023-03-03T12:14:07.469Z,3.50
2023-03-03T12:17:58.553Z,3.60
2023-03-03T12:21:08.355Z,3.60
2023-03-03T12:24:25.219Z,3.70
2023-03-03T12:27:41.217Z,3.80
2023-03-03T12:31:07.786Z,3.80
2023-03-03T12:34:23.106Z,3.80
2023-03-03T12:37:52.458Z,3.80
2023-03-03T12:41:34.175Z,3.90
2023-03-03T12:44:45.008Z,3.90
2023-03-03T12:48:10.106Z,3.90
2023-03-03T12:51:35.796Z,4.00
2023-03-03T12:55:15.358Z,4.00
2023-03-03T12:58:34.943Z,4.00
2023-03-03T13:01:58.640Z,4.10
2023-03-03T13:05:06.267Z,4.10
2023-03-03T13:08:31.385Z,4.10
2023-03-03T13:11:58.750Z,4.10
2023-03-03T13:15:03.528Z,4.10
2023-03-03T13:18:14.283Z,4.10
2023-03-03T13:21:32.069Z,4.10
2023-03-03T13:24:50.345Z,4.20
2023-03-03T13:27:59.340Z,4.30
2023-03-03T13:31:16.987Z,4.20
2023-03-03T13:34:38.968Z,4.30
2023-03-03T13:37:48.099Z,4.30
2023-03-03T13:41:11.580Z,4.30
2023-03-03T13:44:42.641Z,4.30
2023-03-03T13:48:23.316Z,4.30
2023-03-03T13:51:40.163Z,4.20
2023-03-03T13:55:11.892Z,4.20
2023-03-03T13:58:19.584Z,4.20
2023-03-03T14:01:31.099Z,4.30
2023-03-03T14:04:48.320Z,4.30
2023-03-03T14:08:00.722Z,4.20
2023-03-03T14:11:16.014Z,4.30
2023-03-03T14:14:36.175Z,4.30
2023-03-03T14:17:49.006Z,4.40
2023-03-03T14:20:58.549Z,4.50
2023-03-03T14:24:17.572Z,4.50
2023-03-03T14:27:26.835Z,4.40
2023-03-03T14:30:30.662Z,4.40
2023-03-03T14:33:32.531Z,4.40
2023-03-03T14:36:39.198Z,4.40
2023-03-03T14:39:41.330Z,4.40
2023-03-03T14:42:55.586Z,4.40
2023-03-03T14:46:08.363Z,4.50
2023-03-03T14:49:33.084Z,4.50
2023-03-03T14:52:35.877Z,4.60
2023-03-03T14:55:40.439Z,4.60
2023-03-03T14:58:43.097Z,4.60
2023-03-03T15:01:45.521Z,4.60
2023-03-03T15:04:49.132Z,4.70
2023-03-03T15:08:14.810Z,4.70
2023-03-03T15:11:32.609Z,4.60
2023-03-03T15:14:43.378Z,4.70
2023-03-03T15:17:59.230Z,4.80
2023-03-03T15:21:10.839Z,4.80
2023-03-03T15:24:20.459Z,4.70
2023-03-03T15:27:32.955Z,4.70
2023-03-03T15:30:57.526Z,4.70
2023-03-03T15:34:24.081Z,4.70
2023-03-03T15:37:39.444Z,4.70
2023-03-03T15:41:15.473Z,4.90
2023-03-03T15:44:45.327Z,4.80
2023-03-03T15:48:24.628Z,4.90
2023-03-03T15:52:03.579Z,5.10
2023-03-03T15:55:23.120Z,5.10
2023-03-03T15:58:40.632Z,5.10
2023-03-03T16:02:26.350Z,5.00
2023-03-03T16:05:34.225Z,5.00
2023-03-03T16:08:38.793Z,5.00
2023-03-03T16:12:01.137Z,5.00
2023-03-03T16:15:23.367Z,4.90
2023-03-03T16:18:51.346Z,4.90
2023-03-03T16:22:17.152Z,4.90
2023-03-03T16:25:45.439Z,4.90
2023-03-03T16:29:05.759Z,5.00
2023-03-03T16:32:16.314Z,4.90
2023-03-03T16:35:21.245Z,4.90
2023-03-03T16:38:32.483Z,4.90
2023-03-03T16:41:42.214Z,4.90
2023-03-03T16:44:49.815Z,4.90
2023-03-03T16:48:02.712Z,4.90
2023-03-03T16:51:16.810Z,4.90
2023-03-03T16:54:37.758Z,4.90
2023-03-03T16:58:13.361Z,5.00
2023-03-03T17:01:39.635Z,4.80
2023-03-03T17:04:59.124Z,4.70
2023-03-03T17:08:10.328Z,4.60
2023-03-03T17:11:30.736Z,4.60
2023-03-03T17:14:43.788Z,4.50
2023-03-03T17:17:51.494Z,4.60
2023-03-03T17:21:00.445Z,4.40
2023-03-03T17:24:30.350Z,4.30
2023-03-03T17:27:38.334Z,4.30
2023-03-03T17:30:52.185Z,4.30
2023-03-03T17:34:31.408Z,4.10
2023-03-03T17:37:41.991Z,3.90
2023-03-03T17:40:58.759Z,4.00
2023-03-03T17:44:29.046Z,3.90
2023-03-03T17:47:53.728Z,3.80
2023-03-03T17:50:58.473Z,3.70
2023-03-03T17:54:22.204Z,3.60
2023-03-03T17:57:33.439Z,3.50
2023-03-03T18:01:20.278Z,3.30
2023-03-03T18:04:34.672Z,3.50
2023-03-03T18:08:09.307Z,3.50
2023-03-03T18:11:17.002Z,3.40
2023-03-03T18:14:30.284Z,3.40
2023-03-03T18:17:36.612Z,3.30
2023-03-03T18:20:56.052Z,3.20
2023-03-03T18:24:25.446Z,3.20
2023-03-03T18:27:31.838Z,3.20
2023-03-03T18:31:25.127Z,3.00
2023-03-03T18:34:38.684Z,3.10
2023-03-03T18:37:41.948Z,3.10
2023-03-03T18:41:05.490Z,3.10
2023-03-03T18:44:29.230Z,3.00
2023-03-03T18:48:09.823Z,3.00
2023-03-03T18:51:11.667Z,2.90
2023-03-03T18:54:22.233Z,2.90
2023-03-03T18:57:24.217Z,2.90
2023-03-03T19:00:30.235Z,2.90
2023-03-03T19:03:38.221Z,2.90
2023-03-03T19:06:43.669Z,2.90
2023-03-03T19:10:10.916Z,2.80
2023-03-03T19:13:34.532Z,2.90
2023-03-03T19:16:37.925Z,2.80
2023-03-03T19:20:02.761Z,2.60
2023-03-03T19:23:13.840Z,2.70
2023-03-03T19:26:29.248Z,2.70
2023-03-03T19:29:41.520Z,2.60
2023-03-03T19:33:10.165Z,2.60
2023-03-03T19:36:29.280Z,2.60
2023-03-03T19:39:46.501Z,2.50
2023-03-03T19:43:10.005Z,2.40
2023-03-03T19:46:41.200Z,2.40
2023-03-03T19:49:54.837Z,2.30
2023-03-03T19:52:56.535Z,2.30
2023-03-03T19:56:11.041Z,2.30
2023-03-03T19:59:41.551Z,2.20
2023-03-03T20:03:08.317Z,2.20
2023-03-03T20:06:32.870Z,2.20
2023-03-03T20:09:55.679Z,2.10
2023-03-03T20:13:09.191Z,2.20
2023-03-03T20:16:14.921Z,2.20
2023-03-03T20:19:31.908Z,2.20
2023-03-03T20:23:20.873Z,2.20
2023-03-03T20:26:49.876Z,2.30
2023-03-03T20:30:11.277Z,2.10
2023-03-03T20:33:44.292Z,2.10
2023-03-03T20:37:15.286Z,2.20
2023-03-03T20:40:27.108Z,2.20
2023-03-03T20:43:43.763Z,2.30
2023-03-03T20:47:08.548Z,2.40
2023-03-03T20:50:49.239Z,2.40
2023-03-03T20:54:09.409Z,2.40
2023-03-03T20:57:34.361Z,2.40
2023-03-03T21:01:04.658Z,2.40
2023-03-03T21:04:28.990Z,2.60
2023-03-03T21:07:34.014Z,2.60
2023-03-03T21:10:37.764Z,2.50
2023-03-03T21:13:52.176Z,2.50
2023-03-03T21:16:57.409Z,2.50
2023-03-03T21:20:31.611Z,2.60
2023-03-03T21:23:33.614Z,2.60
2023-03-03T21:26:49.873Z,2.60
2023-03-03T21:30:10.340Z,2.60
2023-03-03T21:33:38.453Z,2.70
2023-03-03T21:36:40.207Z,2.70
2023-03-03T21:39:43.850Z,2.70
2023-03-03T21:42:45.599Z,2.70
2023-03-03T21:45:47.494Z,2.70
2023-03-03T21:48:51.162Z,2.70
2023-03-03T21:51:53.100Z,2.60
2023-03-03T21:54:55.065Z,2.60
2023-03-03T21:57:57.084Z,2.70
2023-03-03T22:00:59.123Z,2.70
2023-03-03T22:04:01.603Z,2.70
2023-03-03T22:07:03.826Z,2.70
2023-03-03T22:10:07.499Z,2.70
2023-03-03T22:13:09.352Z,2.80
2023-03-03T22:16:12.748Z,2.80
2023-03-03T22:19:14.882Z,2.70
2023-03-03T22:22:16.788Z,2.80
2023-03-03T22:25:18.557Z,2.70
2023-03-03T22:28:20.600Z,2.70
2023-03-03T22:31:22.575Z,2.80
2023-03-03T22:34:24.797Z,2.80
2023-03-03T22:37:26.810Z,2.90
2023-03-03T22:40:28.591Z,2.80
2023-03-03T22:43:30.424Z,2.80
2023-03-03T22:46:32.452Z,2.80
2023-03-03T22:49:34.338Z,2.80
2023-03-03T22:52:36.345Z,2.80
2023-03-03T22:55:38.208Z,2.80
2023-03-03T22:58:40.188Z,2.80
2023-03-03T23:01:42.166Z,2.80
2023-03-03T23:04:44.252Z,2.90
2023-03-03T23:07:46.218Z,2.90
2023-03-03T23:10:48.711Z,2.90
2023-03-03T23:13:50.981Z,2.90
2023-03-03T23:16:52.969Z,2.80
2023-03-03T23:19:54.861Z,2.80
2023-03-03T23:22:57.342Z,2.90
2023-03-03T23:25:59.464Z,2.80
2023-03-03T23:29:01.352Z,2.80
2023-03-03T23:32:04.582Z,2.70
2023-03-03T23:35:06.887Z,2.70
2023-03-03T23:38:08.925Z,2.70
2023-03-03T23:41:10.782Z,2.80
2023-03-03T23:44:13.204Z,2.80
2023-03-03T23:47:15.305Z,2.80
2023-03-03T23:50:17.490Z,2.80
2023-03-03T23:53:19.500Z,2.80
2023-03-03T23:56:21.362Z,2.80
2023-03-03T23:59:23.391Z,2.80
